Arbovale, WV (24915)

5:03 PM EDT on August 27, 2015 (GMT -0400)
Spruce Knob Mountain Center | | Change Station
CLOSE
Current Station
Personal Weather Station
Location: Circleville, WV
Elevation: 4068 ft
Nearby Weather Stations

Elev 4068 ft 38.68 °N, 79.56 °W | Updated 24 seconds ago

Mostly Cloudy
Mostly Cloudy
64.6 °F
Feels Like 64.6 °F
N
0.0
Wind Variable Wind from NE
Gusts 3.0 mph

Today
High -- | Low -- °F
--% Chance of Precip.
Yesterday
High -- | Low -- °F
Precip. -- in
6:43 AM 7:56 PM
Waxing Gibbous, 95% visible
Pressure 30.19 in
Visibility 10.0 miles
Clouds Mostly Cloudy 4700 ft
Dew Point 51 °F
Humidity 62%
Rainfall 0.00 in
Snow Depth Not available.
UV 3 out of 12
Pollen 8.70 out of 12
Air Quality Not available.
Flu Activity Not available.
METAR KHSP 272030Z AUTO 15004KT 10SM BKN047 21/11 A3019 RMK AO2 T02080111
Pressure 30.19 in
Visibility 10.0 miles
Clouds Mostly Cloudy 4700 ft
Dew Point 51 °F
Humidity 62%
Rainfall 0.00 in
Snow Depth Not available.
UV 3 out of 12
Pollen 8.70 out of 12
Air Quality Not available.
Flu Activity Not available.
METAR KHSP 272030Z AUTO 15004KT 10SM BKN047 21/11 A3019 RMK AO2 T02080111

10-Day Weather Forecast

×

Almanac

Astronomy

Aug. 27, 2015 Rise Set
Actual Time
Civil Twilight
Nautical Twilight
Astronomical Twilight
Moon
Length of Visible Light
Length of Day
Tomorrow will be .
, % of the Moon is Illuminated

Today's Extremes

State Highs State Lows

Community

WunderPhotos

Upload Photos

1,850,217 photos uploaded!

WunderBlogs® & News

Nearby

Air Quality

  Air Quality AQ Index Pollutant
Not available.

Snow Depth

Station Depth Elevation

Earthquake Activity

City Distance Mag. Time & Date
Minimum magnitude displayed is 2.5.

Coastal Water Temperatures

Place Temperature

Stations

Nearby Weather Stations

Station Location Temp. Windchill Dew Point Humidity Wind Precip. Elev Updated Type